Time;durP1;ratioP1;P1;durP2;ratioP2;P2;SDS_P1;SDS_P2;PMS_P1;PMS_P2;Temp;Humidity;BMP_temperature;BMP_pressure;BME280_temperature;BME280_humidity;BME280_pressure;Samples;Min_cycle;Max_cycle;Signal;HPM_P1;HPM_P2
2023/06/27 00:00:17;;;;;;;;;10.00;9.00;28.20;53.60;;;;;;111246;1244;45139;-63
2023/06/27 00:03:05;;;;;;;;;10.75;10.25;28.20;53.50;;;;;;111231;1243;51464;-63
2023/06/27 00:05:34;;;;;;;;;12.00;10.00;28.20;53.50;;;;;;111271;1241;50170;-62
2023/06/27 00:08:02;;;;;;;;;12.00;10.00;28.20;53.50;;;;;;111233;1238;53966;-61
2023/06/27 00:10:29;;;;;;;;;11.00;9.25;28.20;53.70;;;;;;111231;1243;44768;-66
2023/06/27 00:12:56;;;;;;;;;10.75;9.25;28.20;53.90;;;;;;111295;1243;48942;-63
2023/06/27 00:15:23;;;;;;;;;11.00;10.25;28.20;53.50;;;;;;111237;1241;49380;-62
2023/06/27 00:17:53;;;;;;;;;13.00;11.50;28.10;53.50;;;;;;111224;1238;54647;-63
2023/06/27 00:20:20;;;;;;;;;9.00;8.25;28.10;53.50;;;;;;111253;1244;45115;-62
2023/06/27 00:22:47;;;;;;;;;11.25;10.25;28.10;53.50;;;;;;111205;1240;49446;-62
2023/06/27 00:25:14;;;;;;;;;12.00;11.00;28.10;53.50;;;;;;111311;1240;48709;-63
2023/06/27 00:27:41;;;;;;;;;12.33;11.33;28.10;53.10;;;;;;111237;1244;54635;-62
2023/06/27 00:30:09;;;;;;;;;10.25;9.25;28.10;53.50;;;;;;111251;1241;44112;-63
2023/06/27 00:32:36;;;;;;;;;14.00;13.00;28.10;53.70;;;;;;111256;1243;49692;-62
2023/06/27 00:35:04;;;;;;;;;10.00;8.25;28.10;53.70;;;;;;111316;1240;49187;-63
2023/06/27 00:37:31;;;;;;;;;10.00;9.00;28.10;53.50;;;;;;111246;1238;53948;-62
2023/06/27 00:39:58;;;;;;;;;11.00;10.00;28.10;53.50;;;;;;111247;1244;44881;-63
2023/06/27 00:42:27;;;;;;;;;9.00;8.50;28.10;53.50;;;;;;111209;1244;48828;-63
2023/06/27 00:44:54;;;;;;;;;10.33;10.00;28.10;53.10;;;;;;111284;1243;49965;-63
2023/06/27 00:47:21;;;;;;;;;10.25;9.25;28.00;53.50;;;;;;111273;1244;53621;-62
2023/06/27 00:49:48;;;;;;;;;10.50;10.00;28.00;53.50;;;;;;111215;1238;44849;-62
2023/06/27 00:52:15;;;;;;;;;11.33;10.00;28.10;53.50;;;;;;111206;1243;48960;-63
2023/06/27 00:54:42;;;;;;;;;9.00;8.00;28.00;53.50;;;;;;111255;1244;50336;-62
2023/06/27 00:57:10;;;;;;;;;10.75;10.00;28.00;53.50;;;;;;111268;1238;53486;-64
2023/06/27 00:59:37;;;;;;;;;11.00;10.00;28.00;53.70;;;;;;111154;1241;44331;-61
2023/06/27 01:02:04;;;;;;;;;11.00;10.00;28.00;53.50;;;;;;111234;1240;49925;-63
2023/06/27 01:04:31;;;;;;;;;12.33;11.33;28.00;53.50;;;;;;111280;1241;49472;-62
2023/06/27 01:07:10;;;;;;;;;11.00;10.00;28.00;54.00;;;;;;111309;1243;54749;-62
2023/06/27 01:09:48;;;;;;;;;12.00;11.00;28.00;53.50;;;;;;111298;1240;44771;-63
2023/06/27 01:12:21;;;;;;;;;13.00;11.00;28.00;53.50;;;;;;111301;1240;50056;-62
2023/06/27 01:14:50;;;;;;;;;10.50;10.00;28.00;53.50;;;;;;111398;1243;49691;-62
2023/06/27 01:17:18;;;;;;;;;11.00;9.00;28.00;53.50;;;;;;111370;1240;54685;-62
2023/06/27 01:19:46;;;;;;;;;9.67;9.00;28.00;53.50;;;;;;111333;1238;44607;-62
2023/06/27 01:22:19;;;;;;;;;10.00;9.25;28.00;53.40;;;;;;111378;1241;48636;-62
2023/06/27 01:24:46;;;;;;;;;11.00;10.00;28.00;53.40;;;;;;111413;1240;48698;-63
2023/06/27 01:27:14;;;;;;;;;11.00;11.00;28.00;53.70;;;;;;111298;1243;54403;-62
2023/06/27 01:29:41;;;;;;;;;10.75;10.50;28.00;53.50;;;;;;111308;1243;44640;-62
2023/06/27 01:32:17;;;;;;;;;11.00;10.00;27.90;53.40;;;;;;111283;1244;49578;-67
2023/06/27 01:34:47;;;;;;;;;9.00;8.50;27.90;53.40;;;;;;111305;1243;49238;-63
2023/06/27 01:37:22;;;;;;;;;10.25;9.25;27.90;53.40;;;;;;111242;1243;53953;-63
2023/06/27 01:40:02;;;;;;;;;10.75;9.50;27.90;53.40;;;;;;111284;1243;44677;-62
2023/06/27 01:42:40;;;;;;;;;11.75;11.25;27.90;53.40;;;;;;111350;1243;49356;-63
2023/06/27 01:45:08;;;;;;;;;11.00;10.00;27.90;53.60;;;;;;111323;1238;49384;-63
2023/06/27 01:47:38;;;;;;;;;11.25;10.75;27.90;53.40;;;;;;111305;1240;53525;-63
2023/06/27 01:50:06;;;;;;;;;11.25;10.50;27.90;53.40;;;;;;111238;1240;45852;-63
2023/06/27 01:52:33;;;;;;;;;10.50;10.00;27.90;53.40;;;;;;111236;1240;49578;-63
2023/06/27 01:55:00;;;;;;;;;10.50;9.00;27.90;53.40;;;;;;111232;1244;49366;-63
2023/06/27 01:57:28;;;;;;;;;11.25;10.25;27.90;53.40;;;;;;111191;1240;54488;-62
2023/06/27 01:59:55;;;;;;;;;12.25;11.50;27.80;53.40;;;;;;111225;1240;44967;-63
2023/06/27 02:02:22;;;;;;;;;11.00;10.00;27.80;53.40;;;;;;111278;1243;49531;-63
2023/06/27 02:04:49;;;;;;;;;11.25;10.25;27.80;53.40;;;;;;111260;1238;49444;-63
2023/06/27 02:07:16;;;;;;;;;10.67;10.00;27.80;53.60;;;;;;111231;1244;55335;-62
2023/06/27 02:09:43;;;;;;;;;12.00;9.00;27.80;53.40;;;;;;111261;1239;45081;-62
2023/06/27 02:12:11;;;;;;;;;10.75;9.75;27.80;53.40;;;;;;111288;1239;48925;-63
2023/06/27 02:14:38;;;;;;;;;11.50;10.50;27.80;53.60;;;;;;111257;1240;49344;-63
2023/06/27 02:17:05;;;;;;;;;11.00;10.00;27.80;53.70;;;;;;111399;1243;54363;-63
2023/06/27 02:19:32;;;;;;;;;12.00;11.00;27.80;54.00;;;;;;111231;1244;45048;-63
2023/06/27 02:21:59;;;;;;;;;11.75;11.25;27.70;53.50;;;;;;111252;1243;49750;-62
2023/06/27 02:24:26;;;;;;;;;9.00;8.50;27.70;53.40;;;;;;111243;1238;49339;-61
2023/06/27 02:26:53;;;;;;;;;11.50;11.00;27.70;53.40;;;;;;111271;1243;53785;-62
2023/06/27 02:29:20;;;;;;;;;10.00;9.00;27.70;53.40;;;;;;111225;1238;45088;-62
2023/06/27 02:31:46;;;;;;;;;12.00;9.50;27.70;53.50;;;;;;111233;1238;49546;-62
2023/06/27 02:34:13;;;;;;;;;10.75;10.00;27.70;53.50;;;;;;111263;1240;49296;-63
2023/06/27 02:36:40;;;;;;;;;11.25;10.25;27.70;53.60;;;;;;111258;1240;53213;-63
2023/06/27 02:39:08;;;;;;;;;12.00;11.00;27.70;53.50;;;;;;111287;1243;44506;-62
2023/06/27 02:41:35;;;;;;;;;12.00;11.25;27.70;53.50;;;;;;111197;1244;49733;-63
2023/06/27 02:44:02;;;;;;;;;11.00;9.50;27.70;53.70;;;;;;111263;1238;49355;-62
2023/06/27 02:46:29;;;;;;;;;11.00;10.00;27.60;53.60;;;;;;111230;1243;54034;-61
2023/06/27 02:48:56;;;;;;;;;10.00;9.33;27.60;53.40;;;;;;111251;1243;45054;-62
2023/06/27 02:51:23;;;;;;;;;11.25;11.25;27.60;53.40;;;;;;111243;1243;50972;-61
2023/06/27 02:53:50;;;;;;;;;10.00;9.00;27.60;53.50;;;;;;111226;1243;49108;-63
2023/06/27 02:56:17;;;;;;;;;11.75;11.00;27.60;53.50;;;;;;111250;1239;53538;-61
2023/06/27 02:58:43;;;;;;;;;12.00;11.00;27.60;53.60;;;;;;111212;1238;44636;-62
2023/06/27 03:01:11;;;;;;;;;11.25;10.75;27.60;53.60;;;;;;111266;1238;48975;-63
2023/06/27 03:03:38;;;;;;;;;10.67;10.00;27.60;53.50;;;;;;111218;1240;49540;-62
2023/06/27 03:06:08;;;;;;;;;11.00;10.50;27.60;53.50;;;;;;111291;1244;53708;-61
2023/06/27 03:08:37;;;;;;;;;12.00;10.00;27.60;53.30;;;;;;111298;1240;44247;-62
2023/06/27 03:11:04;;;;;;;;;12.25;10.25;27.60;53.50;;;;;;111308;1240;49443;-62
2023/06/27 03:13:32;;;;;;;;;10.67;10.00;27.60;53.50;;;;;;111274;1243;49673;-61
2023/06/27 03:16:00;;;;;;;;;11.33;10.67;27.60;53.60;;;;;;111294;1240;54345;-63
2023/06/27 03:18:28;;;;;;;;;12.00;11.00;27.60;53.50;;;;;;111257;1240;45547;-64
2023/06/27 03:20:55;;;;;;;;;12.00;11.00;27.50;53.60;;;;;;111233;1239;49525;-63
2023/06/27 03:23:22;;;;;;;;;11.50;10.25;27.50;54.00;;;;;;111237;1243;49787;-66
2023/06/27 03:25:48;;;;;;;;;12.00;12.00;27.50;53.50;;;;;;111352;1243;54133;-62
2023/06/27 03:28:15;;;;;;;;;12.00;10.50;27.50;54.00;;;;;;111245;1238;45513;-62
2023/06/27 03:30:43;;;;;;;;;10.00;9.33;27.50;53.50;;;;;;111278;1240;49822;-62
2023/06/27 03:33:10;;;;;;;;;12.33;12.00;27.50;53.40;;;;;;111276;1238;49581;-62
2023/06/27 03:35:38;;;;;;;;;12.00;10.00;27.50;53.50;;;;;;111288;1238;53709;-62
2023/06/27 03:38:05;;;;;;;;;11.00;11.00;27.50;53.50;;;;;;111281;1240;44467;-62
2023/06/27 03:40:32;;;;;;;;;10.75;10.00;27.50;53.40;;;;;;111272;1243;49042;-62
2023/06/27 03:43:00;;;;;;;;;12.00;10.50;27.50;53.60;;;;;;111288;1239;49683;-63
2023/06/27 03:45:28;;;;;;;;;11.00;10.25;27.50;53.60;;;;;;111283;1239;53591;-62
2023/06/27 03:47:55;;;;;;;;;13.00;11.25;27.50;53.40;;;;;;111262;1240;44732;-62
2023/06/27 03:50:22;;;;;;;;;12.50;11.50;27.50;53.30;;;;;;111276;1244;49436;-62
2023/06/27 03:52:49;;;;;;;;;11.00;10.00;27.60;53.40;;;;;;111259;1243;49563;-62
2023/06/27 03:55:16;;;;;;;;;12.00;11.25;27.60;53.30;;;;;;111279;1240;53589;-62
2023/06/27 03:57:43;;;;;;;;;12.50;11.50;27.50;53.30;;;;;;111226;1243;45151;-62
2023/06/27 04:00:11;;;;;;;;;12.00;11.00;27.60;53.50;;;;;;111126;1242;48909;-62
2023/06/27 04:02:38;;;;;;;;;13.75;12.25;27.60;53.30;;;;;;111303;1240;49386;-62
2023/06/27 04:05:06;;;;;;;;;13.00;12.00;27.60;53.30;;;;;;111325;1244;53669;-63
2023/06/27 04:07:33;;;;;;;;;13.75;13.00;27.60;53.30;;;;;;111318;1244;45228;-63
2023/06/27 04:10:00;;;;;;;;;11.25;10.75;27.50;53.20;;;;;;111223;1243;49281;-63
2023/06/27 04:12:27;;;;;;;;;10.25;10.00;27.50;53.30;;;;;;111226;1240;49356;-62
2023/06/27 04:14:54;;;;;;;;;11.00;11.00;27.60;53.30;;;;;;111280;1241;53637;-60
2023/06/27 04:17:21;;;;;;;;;11.67;11.00;27.50;53.20;;;;;;111300;1238;44939;-64
2023/06/27 04:19:48;;;;;;;;;12.00;11.00;27.50;53.40;;;;;;111245;1241;49728;-62
2023/06/27 04:22:15;;;;;;;;;11.00;10.00;27.50;53.20;;;;;;111298;1243;49221;-62
2023/06/27 04:24:42;;;;;;;;;11.00;10.00;27.50;53.50;;;;;;111258;1238;53351;-63
2023/06/27 04:27:09;;;;;;;;;12.25;11.25;27.50;53.30;;;;;;111213;1244;45486;-63
2023/06/27 04:29:37;;;;;;;;;11.00;10.50;27.50;53.30;;;;;;111306;1244;49084;-62
2023/06/27 04:32:04;;;;;;;;;12.00;11.25;27.50;53.40;;;;;;111275;1243;48946;-63
2023/06/27 04:34:36;;;;;;;;;12.33;11.67;27.50;53.50;;;;;;111269;1239;53292;-62
2023/06/27 04:37:04;;;;;;;;;11.67;11.00;27.50;53.30;;;;;;111263;1240;44722;-63
2023/06/27 04:39:31;;;;;;;;;14.25;12.25;27.50;53.30;;;;;;111278;1238;49561;-62
2023/06/27 04:41:58;;;;;;;;;11.33;10.67;27.50;53.50;;;;;;111304;1240;49282;-62
2023/06/27 04:44:25;;;;;;;;;11.00;10.50;27.50;53.30;;;;;;111249;1238;54584;-61
2023/06/27 04:46:52;;;;;;;;;10.00;9.00;27.50;53.30;;;;;;111274;1243;44791;-62
2023/06/27 04:49:19;;;;;;;;;11.67;10.67;27.40;53.20;;;;;;111276;1243;49970;-62
2023/06/27 04:51:46;;;;;;;;;13.00;11.00;27.40;53.20;;;;;;111256;1239;49556;-66
2023/06/27 04:54:13;;;;;;;;;12.33;12.33;27.40;53.20;;;;;;111314;1244;53521;-63
2023/06/27 04:56:40;;;;;;;;;13.50;11.75;27.40;53.50;;;;;;111271;1239;44841;-62
2023/06/27 04:59:07;;;;;;;;;10.00;9.00;27.40;53.30;;;;;;111328;1238;49026;-62
2023/06/27 05:01:34;;;;;;;;;13.00;11.50;27.40;53.20;;;;;;111272;1244;49409;-62
2023/06/27 05:04:04;;;;;;;;;10.33;10.00;27.40;53.50;;;;;;111230;1240;53492;-62
2023/06/27 05:06:34;;;;;;;;;10.75;10.25;27.40;53.30;;;;;;111244;1239;44333;-65
2023/06/27 05:09:03;;;;;;;;;10.50;10.00;27.40;53.40;;;;;;111250;1244;49684;-62
2023/06/27 05:11:30;;;;;;;;;12.67;11.67;27.40;53.50;;;;;;111259;1243;49741;-62
2023/06/27 05:13:57;;;;;;;;;11.00;10.00;27.40;53.80;;;;;;111241;1243;54013;-62
2023/06/27 05:16:24;;;;;;;;;10.33;10.00;27.40;53.50;;;;;;111573;1243;44294;-62
2023/06/27 05:18:51;;;;;;;;;10.33;9.67;27.40;53.30;;;;;;111248;1240;48805;-62
2023/06/27 05:21:18;;;;;;;;;10.33;9.33;27.40;53.40;;;;;;111218;1238;49900;-61
2023/06/27 05:23:45;;;;;;;;;12.75;12.00;27.40;53.30;;;;;;111249;1243;53316;-62
2023/06/27 05:26:13;;;;;;;;;11.50;11.25;27.40;53.30;;;;;;111355;1241;44978;-64
2023/06/27 05:28:40;;;;;;;;;11.50;10.00;27.40;53.30;;;;;;111273;1240;49262;-62
2023/06/27 05:31:07;;;;;;;;;12.00;10.00;27.40;53.30;;;;;;111247;1243;49722;-62
2023/06/27 05:33:34;;;;;;;;;10.00;9.33;27.40;53.40;;;;;;111216;1244;54060;-61
2023/06/27 05:36:01;;;;;;;;;11.00;10.00;27.40;53.40;;;;;;111237;1238;44814;-62
2023/06/27 05:38:28;;;;;;;;;11.75;11.25;27.40;53.40;;;;;;111234;1238;49453;-62
2023/06/27 05:40:55;;;;;;;;;11.33;11.00;27.40;53.40;;;;;;111228;1240;48909;-62
2023/06/27 05:43:22;;;;;;;;;12.75;11.25;27.40;53.60;;;;;;111247;1243;53361;-62
2023/06/27 05:45:49;;;;;;;;;11.75;11.00;27.40;53.60;;;;;;111256;1243;45088;-62
2023/06/27 05:48:16;;;;;;;;;11.00;10.00;27.40;53.40;;;;;;111257;1239;48907;-62
2023/06/27 05:50:43;;;;;;;;;12.75;11.25;27.40;53.50;;;;;;111251;1238;48893;-62
2023/06/27 05:53:11;;;;;;;;;10.25;10.25;27.40;53.40;;;;;;111222;1240;54157;-61
2023/06/27 05:55:38;;;;;;;;;12.33;11.00;27.40;53.50;;;;;;111302;1245;44644;-62
2023/06/27 05:58:05;;;;;;;;;12.00;10.25;27.30;53.40;;;;;;111263;1240;49757;-62
2023/06/27 06:00:31;;;;;;;;;11.00;10.25;27.40;53.50;;;;;;111211;1243;49553;-62
2023/06/27 06:02:58;;;;;;;;;12.33;11.33;27.40;53.50;;;;;;111206;1243;53456;-62
2023/06/27 06:05:25;;;;;;;;;12.25;11.25;27.30;53.50;;;;;;111263;1241;45172;-63
2023/06/27 06:07:52;;;;;;;;;12.33;10.00;27.30;53.50;;;;;;111290;1240;49221;-61
2023/06/27 06:10:21;;;;;;;;;11.00;10.00;27.40;53.50;;;;;;111280;1240;49924;-61
2023/06/27 06:12:48;;;;;;;;;9.00;8.75;27.30;53.40;;;;;;111236;1243;53736;-63
2023/06/27 06:15:15;;;;;;;;;11.25;11.00;27.40;53.60;;;;;;111267;1239;44247;-63
2023/06/27 06:17:42;;;;;;;;;11.00;10.00;27.40;53.60;;;;;;111246;1243;49878;-61
2023/06/27 06:20:10;;;;;;;;;11.00;9.25;27.40;53.60;;;;;;111261;1240;50332;-62
2023/06/27 06:22:38;;;;;;;;;11.75;11.00;27.40;53.60;;;;;;111243;1243;54517;-62
2023/06/27 06:25:05;;;;;;;;;14.00;13.25;27.40;53.60;;;;;;111275;1244;44502;-63
2023/06/27 06:27:32;;;;;;;;;12.00;10.25;27.40;53.60;;;;;;111325;1243;49011;-62
2023/06/27 06:29:59;;;;;;;;;13.25;12.25;27.40;53.60;;;;;;111247;1243;49477;-62
2023/06/27 06:32:26;;;;;;;;;11.00;10.00;27.40;54.10;;;;;;111258;1244;53935;-61
2023/06/27 06:34:53;;;;;;;;;10.00;9.33;27.40;53.60;;;;;;111288;1243;44820;-63
2023/06/27 06:37:20;;;;;;;;;8.75;8.25;27.40;53.60;;;;;;111218;1245;50550;-61
2023/06/27 06:39:47;;;;;;;;;9.00;8.00;27.40;53.60;;;;;;111292;1240;49020;-62
2023/06/27 06:42:14;;;;;;;;;9.00;9.00;27.40;53.70;;;;;;111204;1244;53864;-62
2023/06/27 06:44:41;;;;;;;;;10.00;9.25;27.40;53.50;;;;;;111273;1244;44828;-62
2023/06/27 06:47:08;;;;;;;;;10.00;9.50;27.50;53.60;;;;;;111259;1243;48979;-61
2023/06/27 06:49:35;;;;;;;;;9.67;9.00;27.50;53.60;;;;;;111211;1238;49572;-63
2023/06/27 06:52:02;;;;;;;;;10.50;9.75;27.50;53.50;;;;;;111337;1243;54167;-60
2023/06/27 06:54:29;;;;;;;;;13.25;12.00;27.50;53.60;;;;;;111233;1241;44723;-62
2023/06/27 06:56:56;;;;;;;;;10.25;9.75;27.50;53.60;;;;;;111262;1243;49665;-62
2023/06/27 06:59:23;;;;;;;;;11.75;10.75;27.50;53.50;;;;;;111230;1244;49696;-62
2023/06/27 07:01:51;;;;;;;;;9.00;9.00;27.50;53.50;;;;;;111250;1240;54354;-62
2023/06/27 07:04:18;;;;;;;;;11.00;10.00;27.50;53.70;;;;;;111335;1243;44512;-62
2023/06/27 07:06:47;;;;;;;;;10.75;10.25;27.60;53.60;;;;;;111258;1238;49335;-61
2023/06/27 07:09:14;;;;;;;;;9.75;8.25;27.50;53.70;;;;;;111209;1239;48953;-62
2023/06/27 07:11:41;;;;;;;;;12.00;10.00;27.60;53.50;;;;;;111235;1243;54276;-63
2023/06/27 07:14:08;;;;;;;;;11.25;11.00;27.60;53.10;;;;;;111284;1240;45130;-61
2023/06/27 07:16:35;;;;;;;;;11.00;11.00;27.60;53.50;;;;;;111289;1244;49037;-62
2023/06/27 07:19:02;;;;;;;;;10.25;9.25;27.70;53.60;;;;;;111250;1240;49380;-61
2023/06/27 07:21:29;;;;;;;;;9.00;8.67;27.70;53.80;;;;;;111250;1244;54738;-62
2023/06/27 07:23:56;;;;;;;;;10.25;10.00;27.60;53.50;;;;;;111270;1240;45109;-61
2023/06/27 07:26:23;;;;;;;;;11.00;10.00;27.70;53.70;;;;;;111286;1238;49867;-62
2023/06/27 07:28:50;;;;;;;;;9.75;9.00;27.70;53.50;;;;;;111278;1244;50652;-61
2023/06/27 07:31:17;;;;;;;;;10.50;10.00;27.70;53.50;;;;;;111261;1242;54832;-61
2023/06/27 07:33:44;;;;;;;;;10.75;9.75;27.80;53.50;;;;;;111297;1244;45009;-61
2023/06/27 07:36:11;;;;;;;;;10.00;9.33;27.80;53.50;;;;;;111329;1238;49310;-63
2023/06/27 07:38:38;;;;;;;;;9.33;9.33;27.80;53.60;;;;;;111214;1238;49328;-62
2023/06/27 07:41:05;;;;;;;;;10.00;8.67;27.80;53.50;;;;;;111223;1243;54221;-62
2023/06/27 07:43:32;;;;;;;;;10.00;9.00;27.90;53.50;;;;;;111206;1240;45115;-62
2023/06/27 07:45:59;;;;;;;;;10.00;9.00;27.90;53.50;;;;;;111272;1240;48914;-61
2023/06/27 07:48:25;;;;;;;;;11.00;9.33;27.90;53.20;;;;;;111233;1241;49400;-62
2023/06/27 07:50:52;;;;;;;;;9.50;8.00;27.90;53.90;;;;;;111347;1243;53911;-62
2023/06/27 07:53:19;;;;;;;;;8.50;8.50;27.90;53.50;;;;;;111295;1243;45255;-62
2023/06/27 07:55:46;;;;;;;;;10.75;10.00;27.90;53.60;;;;;;111291;1243;48695;-62
2023/06/27 07:58:13;;;;;;;;;10.50;10.00;28.00;53.50;;;;;;111229;1240;48954;-62
2023/06/27 08:00:40;;;;;;;;;10.00;8.00;28.00;52.90;;;;;;111251;1238;54100;-62
2023/06/27 08:03:07;;;;;;;;;9.67;9.00;28.00;53.60;;;;;;111223;1244;44758;-62
2023/06/27 08:05:35;;;;;;;;;9.75;8.75;28.10;53.50;;;;;;111385;1243;48894;-61
2023/06/27 08:08:02;;;;;;;;;10.00;9.00;28.10;53.50;;;;;;111222;1240;49921;-60
2023/06/27 08:10:29;;;;;;;;;11.00;10.00;28.10;53.40;;;;;;111228;1240;54569;-61
2023/06/27 08:12:56;;;;;;;;;11.67;9.67;28.10;53.40;;;;;;111237;1238;44523;-62
2023/06/27 08:15:23;;;;;;;;;10.00;8.00;28.10;52.90;;;;;;111259;1243;49370;-61
2023/06/27 08:17:50;;;;;;;;;9.00;9.00;28.10;53.40;;;;;;111254;1244;50142;-61
2023/06/27 08:20:18;;;;;;;;;10.25;9.25;28.20;53.40;;;;;;111272;1243;54455;-61
2023/06/27 08:22:45;;;;;;;;;10.00;9.00;28.20;53.40;;;;;;111241;1243;44175;-62
2023/06/27 08:25:12;;;;;;;;;9.00;9.00;28.30;53.40;;;;;;111236;1239;49886;-63
2023/06/27 08:27:39;;;;;;;;;9.00;7.33;28.30;53.40;;;;;;111268;1244;49492;-63
2023/06/27 08:30:07;;;;;;;;;9.00;8.67;28.30;53.30;;;;;;111250;1240;53904;-62
2023/06/27 08:32:34;;;;;;;;;8.75;8.00;28.30;53.30;;;;;;111360;1238;44689;-62
2023/06/27 08:35:04;;;;;;;;;8.75;8.25;28.40;52.90;;;;;;111349;1239;50472;-62
2023/06/27 08:37:32;;;;;;;;;9.33;9.33;28.40;53.30;;;;;;111247;1244;49077;-61
2023/06/27 08:39:59;;;;;;;;;10.50;9.00;28.40;53.30;;;;;;111272;1243;54141;-62
2023/06/27 08:42:28;;;;;;;;;9.00;8.33;28.40;53.20;;;;;;111307;1239;44181;-61
2023/06/27 08:44:55;;;;;;;;;9.75;8.00;28.50;53.20;;;;;;111309;1244;49329;-62
2023/06/27 08:47:26;;;;;;;;;9.00;8.00;28.50;53.30;;;;;;111279;1240;49450;-62
2023/06/27 08:50:00;;;;;;;;;9.00;8.33;28.50;53.20;;;;;;111253;1243;53901;-61
2023/06/27 08:52:28;;;;;;;;;10.00;9.50;28.50;53.20;;;;;;111260;1243;44180;-62
2023/06/27 08:54:56;;;;;;;;;9.33;7.67;28.50;53.10;;;;;;111292;1243;49586;-63
2023/06/27 08:57:29;;;;;;;;;9.25;8.25;28.60;53.20;;;;;;111395;1242;48871;-61
2023/06/27 08:59:59;;;;;;;;;8.00;7.67;28.60;53.10;;;;;;111244;1240;54084;-62
2023/06/27 09:02:26;;;;;;;;;8.50;7.25;28.60;53.00;;;;;;111265;1244;44935;-62
2023/06/27 09:04:54;;;;;;;;;10.75;9.00;28.60;53.00;;;;;;111318;1244;49215;-62
2023/06/27 09:07:21;;;;;;;;;10.50;8.75;28.70;53.10;;;;;;111339;1238;49548;-62
2023/06/27 09:09:49;;;;;;;;;8.00;7.00;28.70;53.10;;;;;;111264;1240;53488;-62
2023/06/27 09:12:16;;;;;;;;;12.00;10.00;28.70;53.00;;;;;;111351;1244;44551;-61
2023/06/27 09:14:43;;;;;;;;;9.00;8.00;28.70;53.20;;;;;;111273;1240;49383;-62
2023/06/27 09:17:10;;;;;;;;;8.00;7.25;28.70;53.00;;;;;;111217;1244;50179;-65
2023/06/27 09:19:38;;;;;;;;;10.00;9.00;28.70;53.00;;;;;;111229;1238;54148;-63
2023/06/27 09:22:06;;;;;;;;;10.00;8.75;28.80;53.00;;;;;;111345;1244;44428;-62
2023/06/27 09:24:34;;;;;;;;;10.00;9.00;28.80;52.60;;;;;;111341;1243;48911;-62
2023/06/27 09:27:02;;;;;;;;;10.00;9.00;28.80;53.00;;;;;;111221;1243;50188;-61
2023/06/27 09:29:32;;;;;;;;;10.00;9.00;28.90;53.00;;;;;;111261;1238;54609;-61
2023/06/27 09:32:07;;;;;;;;;9.25;9.00;28.90;53.00;;;;;;111224;1243;44199;-62
2023/06/27 09:34:36;;;;;;;;;9.00;8.00;28.90;53.00;;;;;;111242;1240;49822;-62
2023/06/27 09:37:04;;;;;;;;;9.75;8.00;28.90;53.00;;;;;;111297;1240;49600;-62
2023/06/27 09:39:31;;;;;;;;;9.33;9.00;28.90;52.90;;;;;;111335;1244;54275;-62
2023/06/27 09:41:58;;;;;;;;;10.00;9.00;28.90;52.90;;;;;;111250;1243;44341;-62
2023/06/27 09:44:25;;;;;;;;;10.50;9.00;29.00;52.90;;;;;;111297;1243;49282;-62
2023/06/27 09:46:52;;;;;;;;;9.00;8.50;29.00;52.90;;;;;;111227;1243;49579;-62
2023/06/27 09:49:21;;;;;;;;;8.25;7.25;29.00;53.10;;;;;;111272;1240;54084;-62
2023/06/27 09:51:49;;;;;;;;;9.25;9.00;29.00;52.90;;;;;;111318;1244;45465;-62
2023/06/27 09:54:25;;;;;;;;;9.50;9.00;29.00;52.90;;;;;;111335;1240;49586;-62
2023/06/27 09:56:53;;;;;;;;;8.75;8.00;29.00;52.80;;;;;;111316;1239;48711;-63
2023/06/27 09:59:28;;;;;;;;;9.75;9.00;29.00;53.10;;;;;;111315;1243;54722;-62
2023/06/27 10:01:55;;;;;;;;;9.00;8.50;29.00;52.80;;;;;;111330;1239;45547;-62
2023/06/27 10:04:24;;;;;;;;;9.75;9.25;29.10;52.80;;;;;;111345;1241;48477;-61
2023/06/27 10:06:51;;;;;;;;;9.00;8.25;29.10;52.80;;;;;;111353;1239;49874;-61
2023/06/27 10:09:19;;;;;;;;;8.00;8.00;29.10;52.80;;;;;;111355;1243;53346;-63
2023/06/27 10:11:46;;;;;;;;;9.25;8.00;29.10;52.70;;;;;;111304;1244;45435;-61
2023/06/27 10:14:14;;;;;;;;;8.25;8.00;29.20;52.80;;;;;;111354;1241;48827;-63
2023/06/27 10:16:41;;;;;;;;;9.00;8.00;29.20;52.70;;;;;;111293;1240;49526;-66
2023/06/27 10:19:08;;;;;;;;;7.50;7.00;29.20;52.70;;;;;;111152;1241;54382;-61
2023/06/27 10:21:35;;;;;;;;;9.00;8.00;29.30;52.70;;;;;;111251;1243;45771;-61
2023/06/27 10:24:04;;;;;;;;;9.25;8.25;29.30;52.70;;;;;;111274;1243;49919;-62
2023/06/27 10:26:32;;;;;;;;;9.00;8.25;29.30;52.70;;;;;;111278;1240;50768;-62
2023/06/27 10:29:12;;;;;;;;;8.67;8.67;29.30;52.70;;;;;;111210;1244;54227;-61
2023/06/27 10:31:42;;;;;;;;;10.25;9.00;29.30;52.60;;;;;;111279;1243;44827;-61
2023/06/27 10:34:11;;;;;;;;;10.50;7.00;29.40;52.80;;;;;;111255;1243;49077;-62
2023/06/27 10:36:51;;;;;;;;;8.00;7.00;29.40;52.80;;;;;;111250;1243;50146;-61
2023/06/27 10:39:36;;;;;;;;;10.00;9.00;29.40;52.60;;;;;;111301;1240;54123;-62
2023/06/27 10:42:05;;;;;;;;;9.25;7.75;29.50;52.60;;;;;;111285;1238;44220;-62
2023/06/27 10:44:43;;;;;;;;;9.00;9.00;29.50;52.50;;;;;;111288;1243;48288;-62
2023/06/27 10:47:16;;;;;;;;;8.00;7.33;29.50;52.50;;;;;;111173;1245;49598;-61
2023/06/27 10:49:48;;;;;;;;;10.00;9.00;29.50;52.50;;;;;;111256;1240;53986;-61
2023/06/27 10:52:25;;;;;;;;;10.00;7.25;29.50;52.40;;;;;;111331;1244;44728;-61
2023/06/27 10:55:13;;;;;;;;;9.00;8.00;29.50;52.40;;;;;;111342;1243;48857;-61
2023/06/27 10:57:43;;;;;;;;;8.00;7.25;29.60;52.50;;;;;;111258;1240;49610;-61
2023/06/27 11:00:14;;;;;;;;;10.00;8.00;29.60;51.90;;;;;;111288;1243;53341;-62
2023/06/27 11:02:45;;;;;;;;;11.25;9.50;29.60;52.60;;;;;;111242;1240;44167;-61
2023/06/27 11:05:16;;;;;;;;;9.00;8.00;29.60;52.30;;;;;;111281;1240;48999;-62
2023/06/27 11:07:53;;;;;;;;;9.00;8.25;29.60;52.60;;;;;;111227;1238;49082;-62
2023/06/27 11:10:29;;;;;;;;;9.00;8.00;29.60;52.30;;;;;;111235;1243;54119;-61
2023/06/27 11:13:16;;;;;;;;;10.25;10.00;29.70;52.50;;;;;;111388;1240;44239;-61
2023/06/27 11:15:44;;;;;;;;;8.00;7.75;29.70;52.30;;;;;;111261;1239;48757;-63
2023/06/27 11:18:13;;;;;;;;;10.67;10.00;29.70;52.30;;;;;;111201;1239;49179;-62
2023/06/27 11:20:42;;;;;;;;;9.00;8.00;29.70;52.70;;;;;;111265;1239;53948;-62
2023/06/27 11:23:10;;;;;;;;;8.00;7.25;29.80;52.30;;;;;;111310;1243;44265;-61
2023/06/27 11:25:38;;;;;;;;;11.00;8.00;29.80;52.30;;;;;;111185;1242;48769;-61
2023/06/27 11:28:05;;;;;;;;;7.50;7.00;29.80;52.20;;;;;;111203;1243;49329;-62
2023/06/27 11:30:33;;;;;;;;;9.25;8.25;29.80;52.40;;;;;;111219;1238;54488;-62
2023/06/27 11:33:01;;;;;;;;;9.00;9.00;29.80;52.20;;;;;;111229;1238;45496;-60
2023/06/27 11:35:31;;;;;;;;;10.00;9.00;29.80;52.20;;;;;;111285;1243;49871;-62
2023/06/27 11:37:59;;;;;;;;;11.33;9.67;29.80;52.20;;;;;;111240;1243;48884;-61
2023/06/27 11:40:27;;;;;;;;;9.00;8.00;29.80;52.10;;;;;;111285;1243;53625;-61
2023/06/27 11:43:03;;;;;;;;;8.33;7.67;29.90;52.40;;;;;;111232;1244;44912;-62
2023/06/27 11:45:31;;;;;;;;;8.25;8.00;29.80;52.10;;;;;;111277;1240;50548;-62
2023/06/27 11:47:59;;;;;;;;;9.00;8.00;29.80;52.10;;;;;;111269;1238;49476;-62
2023/06/27 11:50:28;;;;;;;;;8.50;8.00;29.90;52.20;;;;;;111087;1243;164849;-62
2023/06/27 11:52:56;;;;;;;;;9.00;8.00;29.90;52.20;;;;;;111337;1244;44828;-62
2023/06/27 11:55:24;;;;;;;;;8.25;7.25;29.90;52.20;;;;;;111334;1243;48864;-62
2023/06/27 11:57:52;;;;;;;;;9.25;8.25;29.90;52.20;;;;;;111280;1239;48576;-63
2023/06/27 12:00:25;;;;;;;;;9.00;8.75;29.90;52.30;;;;;;111295;1238;54148;-61
2023/06/27 12:02:53;;;;;;;;;11.00;10.00;29.90;52.30;;;;;;111213;1240;45919;-62
2023/06/27 12:05:23;;;;;;;;;9.00;8.25;29.90;52.10;;;;;;111288;1240;50044;-61
2023/06/27 12:08:04;;;;;;;;;10.00;9.25;29.90;52.10;;;;;;111303;1243;50398;-61
2023/06/27 12:10:32;;;;;;;;;11.25;10.00;29.90;52.00;;;;;;111285;1240;54575;-61
2023/06/27 12:13:03;;;;;;;;;11.25;11.00;29.90;52.00;;;;;;111252;1240;45080;-61
2023/06/27 12:15:30;;;;;;;;;9.00;8.00;29.90;52.20;;;;;;111265;1238;49145;-61
2023/06/27 12:18:02;;;;;;;;;9.00;9.00;29.90;52.00;;;;;;111257;1243;49788;-62
2023/06/27 12:20:41;;;;;;;;;9.00;8.75;29.90;52.00;;;;;;111201;1244;55457;-62
2023/06/27 12:23:08;;;;;;;;;9.00;8.33;29.90;51.90;;;;;;111322;1243;44893;-62
2023/06/27 12:25:38;;;;;;;;;8.75;8.00;29.90;51.90;;;;;;111253;1243;48639;-61
2023/06/27 12:28:06;;;;;;;;;11.00;10.00;29.90;52.20;;;;;;111279;1239;48614;-62
2023/06/27 12:30:33;;;;;;;;;9.25;8.25;29.90;51.90;;;;;;111254;1239;54680;-61